createdAt,value
2022-08-09T00:01:05.200Z,90.33
2022-08-09T00:04:03.730Z,90.54
2022-08-09T00:06:24.437Z,89.92
2022-08-09T00:08:51.937Z,91.30
2022-08-09T00:11:24.273Z,90.55
2022-08-09T00:13:51.729Z,91.21
2022-08-09T00:16:26.150Z,91.17
2022-08-09T00:19:03.725Z,91.64
2022-08-09T00:21:37.645Z,92.11
2022-08-09T00:24:09.449Z,90.61
2022-08-09T00:26:36.765Z,89.53
2022-08-09T00:29:03.868Z,90.88
2022-08-09T00:31:58.617Z,90.50
2022-08-09T00:34:25.324Z,90.16
2022-08-09T00:36:52.657Z,89.87
2022-08-09T00:40:13.928Z,89.37
2022-08-09T00:44:19.389Z,91.76
2022-08-09T00:44:52.013Z,92.53
2022-08-09T00:47:20.301Z,91.50
2022-08-09T00:49:52.534Z,91.46
2022-08-09T00:52:22.421Z,91.34
2022-08-09T00:54:54.664Z,90.50
2022-08-09T00:57:33.990Z,90.68
2022-08-09T01:00:22.049Z,91.28
2022-08-09T01:02:53.553Z,93.54
2022-08-09T01:05:51.834Z,93.88
2022-08-09T01:08:27.072Z,94.06
2022-08-09T01:11:16.321Z,94.21
2022-08-09T01:13:58.735Z,93.63
2022-08-09T01:16:30.484Z,94.53
2022-08-09T01:19:02.606Z,94.48
2022-08-09T01:21:50.909Z,94.57
2022-08-09T01:24:17.945Z,94.07
2022-08-09T01:26:55.901Z,92.17
2022-08-09T01:29:41.128Z,92.65
2022-08-09T01:32:31.031Z,90.95
2022-08-09T01:35:07.037Z,89.86
2022-08-09T01:38:10.122Z,89.13
2022-08-09T01:40:33.829Z,88.57
2022-08-09T01:43:04.448Z,87.57
2022-08-09T01:45:34.388Z,87.36
2022-08-09T01:48:11.240Z,86.93
2022-08-09T01:50:48.322Z,86.32
2022-08-09T01:53:19.819Z,87.37
2022-08-09T01:55:47.851Z,87.10
2022-08-09T01:58:15.673Z,87.74
2022-08-09T02:00:46.219Z,88.10
2022-08-09T02:03:19.324Z,87.48
2022-08-09T02:06:04.021Z,88.54
2022-08-09T02:08:57.940Z,88.10
2022-08-09T02:11:23.681Z,87.73
2022-08-09T02:14:02.180Z,88.57
2022-08-09T02:16:59.133Z,87.33
2022-08-09T02:19:24.099Z,87.21
2022-08-09T02:22:08.459Z,87.19
2022-08-09T02:24:37.919Z,86.32
2022-08-09T02:27:08.286Z,87.01
2022-08-09T02:29:44.964Z,86.38
2022-08-09T02:32:18.208Z,86.04
2022-08-09T02:34:55.536Z,86.04
2022-08-09T02:37:31.720Z,85.72
2022-08-09T02:40:04.765Z,85.71
2022-08-09T02:42:42.880Z,85.86
2022-08-09T02:45:15.944Z,86.05
2022-08-09T02:47:57.584Z,85.99
2022-08-09T02:50:30.928Z,86.34
2022-08-09T02:53:02.491Z,87.93
2022-08-09T02:55:46.306Z,87.81
2022-08-09T02:58:32.313Z,88.04
2022-08-09T03:01:04.474Z,87.74
2022-08-09T03:03:37.289Z,87.86
2022-08-09T03:06:23.487Z,88.65
2022-08-09T03:08:52.915Z,87.98
2022-08-09T03:12:06.362Z,87.05
2022-08-09T03:14:08.369Z,86.36
2022-08-09T03:16:41.704Z,86.56
2022-08-09T03:19:14.422Z,86.45
2022-08-09T03:21:59.813Z,86.40
2022-08-09T03:24:42.685Z,86.30
2022-08-09T03:27:17.144Z,86.53
2022-08-09T03:29:57.571Z,88.62
2022-08-09T03:32:30.242Z,90.21
2022-08-09T03:34:58.206Z,89.79
2022-08-09T03:37:55.774Z,88.97
2022-08-09T03:40:13.312Z,88.42
2022-08-09T03:42:43.171Z,88.98
2022-08-09T03:45:10.913Z,88.44
2022-08-09T03:47:41.800Z,88.41
2022-08-09T03:50:12.065Z,88.22
2022-08-09T03:52:40.542Z,88.16
2022-08-09T03:55:10.478Z,87.99
2022-08-09T03:57:44.695Z,88.03
2022-08-09T04:00:24.394Z,87.65
2022-08-09T04:02:53.910Z,88.22
2022-08-09T04:05:27.369Z,88.78
2022-08-09T04:07:57.167Z,88.86
2022-08-09T04:10:29.239Z,88.73
2022-08-09T04:13:01.084Z,88.27
2022-08-09T04:15:42.807Z,88.58
2022-08-09T04:18:16.577Z,88.36
2022-08-09T04:20:46.087Z,88.88
2022-08-09T04:23:17.217Z,88.37
2022-08-09T04:25:52.253Z,89.00
2022-08-09T04:28:33.647Z,91.71
2022-08-09T04:31:08.290Z,91.49
2022-08-09T04:33:52.057Z,92.34
2022-08-09T04:36:25.157Z,92.46
2022-08-09T04:38:53.470Z,93.83
2022-08-09T04:41:23.655Z,93.98
2022-08-09T04:44:05.829Z,92.71
2022-08-09T04:46:37.572Z,92.10
2022-08-09T04:49:40.726Z,91.00
2022-08-09T04:52:09.676Z,90.59
2022-08-09T04:54:36.418Z,90.41
2022-08-09T04:57:03.843Z,92.18
2022-08-09T04:59:30.626Z,93.05
2022-08-09T05:01:57.042Z,93.11
2022-08-09T05:04:23.471Z,92.88
2022-08-09T05:06:57.910Z,94.21
2022-08-09T05:09:24.700Z,94.35
2022-08-09T05:11:51.553Z,96.14
2022-08-09T05:14:18.551Z,96.43
2022-08-09T05:16:58.847Z,97.53
2022-08-09T05:19:31.882Z,97.61
2022-08-09T05:22:33.260Z,98.16
2022-08-09T05:24:57.527Z,99.07
2022-08-09T05:27:28.847Z,98.41
2022-08-09T05:29:57.499Z,98.40
2022-08-09T05:32:25.439Z,97.72
2022-08-09T05:34:51.816Z,97.76
2022-08-09T05:37:18.272Z,96.46
2022-08-09T05:39:44.851Z,94.70
2022-08-09T05:42:17.874Z,91.96
2022-08-09T05:45:01.028Z,87.69
2022-08-09T05:47:30.458Z,84.49
2022-08-09T05:50:28.170Z,78.54
2022-08-09T05:52:53.473Z,74.81
2022-08-09T05:55:21.693Z,73.40
2022-08-09T05:57:55.987Z,67.51
2022-08-09T06:00:26.228Z,64.81
2022-08-09T06:02:56.891Z,62.78
2022-08-09T06:05:50.652Z,60.05
2022-08-09T06:08:11.716Z,57.22
2022-08-09T06:10:38.834Z,54.89
2022-08-09T06:13:18.584Z,51.92
2022-08-09T06:15:47.549Z,51.86
2022-08-09T06:18:17.607Z,49.86
2022-08-09T06:20:54.128Z,46.25
2022-08-09T06:23:21.013Z,46.74
2022-08-09T06:25:49.183Z,43.15
2022-08-09T06:28:16.046Z,45.00
2022-08-09T06:30:43.456Z,43.58
2022-08-09T06:33:40.523Z,42.92
2022-08-09T06:35:58.439Z,41.74
2022-08-09T06:38:36.332Z,41.34
2022-08-09T06:41:04.449Z,40.77
2022-08-09T06:43:34.385Z,39.80
2022-08-09T06:46:06.398Z,40.43
2022-08-09T06:48:37.012Z,41.67
2022-08-09T06:51:10.840Z,40.74
2022-08-09T06:53:39.068Z,38.45
2022-08-09T06:56:07.677Z,39.09
2022-08-09T07:00:47.764Z,36.26
2022-08-09T07:01:24.246Z,36.02
2022-08-09T07:04:03.727Z,36.73
2022-08-09T07:06:30.713Z,38.67
2022-08-09T07:08:57.844Z,38.79
2022-08-09T07:11:25.574Z,36.95
2022-08-09T07:14:05.419Z,37.78
2022-08-09T07:16:39.325Z,35.15
2022-08-09T07:19:09.551Z,35.44
2022-08-09T07:21:41.664Z,34.52
2022-08-09T07:24:22.449Z,33.48
2022-08-09T07:27:00.649Z,33.98
2022-08-09T07:29:30.758Z,35.20
2022-08-09T07:32:04.945Z,34.63
2022-08-09T07:34:32.204Z,33.70
2022-08-09T07:37:02.700Z,34.58
2022-08-09T07:39:40.864Z,33.78
2022-08-09T07:42:09.377Z,35.15
2022-08-09T07:44:53.197Z,35.34
2022-08-09T07:47:20.994Z,35.62
2022-08-09T07:50:08.550Z,35.11
2022-08-09T07:52:36.134Z,35.36
2022-08-09T07:55:08.626Z,34.44
2022-08-09T07:57:36.048Z,35.55
2022-08-09T08:00:05.171Z,34.51
2022-08-09T08:02:36.006Z,34.34
2022-08-09T08:05:17.511Z,34.56
2022-08-09T08:08:42.582Z,32.86
2022-08-09T08:10:31.579Z,33.90
2022-08-09T08:13:01.619Z,32.55
2022-08-09T08:15:35.277Z,33.50
2022-08-09T08:18:02.018Z,33.16
2022-08-09T08:20:33.040Z,30.28
2022-08-09T08:23:16.248Z,30.05
2022-08-09T08:25:50.407Z,29.94
2022-08-09T08:28:31.803Z,30.67
2022-08-09T08:30:59.204Z,31.95
2022-08-09T08:33:25.600Z,31.96
2022-08-09T08:36:07.615Z,32.27
2022-08-09T08:38:34.879Z,32.05
2022-08-09T08:41:05.764Z,31.77
2022-08-09T08:43:33.579Z,33.49
2022-08-09T08:46:31.689Z,33.62
2022-08-09T08:48:53.532Z,34.40
2022-08-09T08:51:22.381Z,31.54
2022-08-09T08:54:03.685Z,32.82
2022-08-09T08:56:35.936Z,30.92
2022-08-09T08:59:19.850Z,31.72
2022-08-09T09:01:56.679Z,31.23
2022-08-09T09:04:31.074Z,31.16
2022-08-09T09:07:08.155Z,30.48
2022-08-09T09:09:57.951Z,32.60
2022-08-09T09:12:29.397Z,31.66
2022-08-09T09:14:58.625Z,32.33
2022-08-09T09:17:25.086Z,30.19
2022-08-09T09:20:15.493Z,31.96
2022-08-09T09:22:51.929Z,31.16
2022-08-09T09:26:04.509Z,31.79
2022-08-09T09:29:01.959Z,34.43
2022-08-09T09:32:04.140Z,34.99
2022-08-09T09:34:15.165Z,35.43
2022-08-09T09:36:53.092Z,33.46
2022-08-09T09:39:42.767Z,35.48
2022-08-09T09:42:22.437Z,36.03
2022-08-09T09:45:03.179Z,36.35
2022-08-09T09:47:30.190Z,34.58
2022-08-09T09:50:15.258Z,33.19
2022-08-09T09:52:54.511Z,36.35
2022-08-09T09:55:28.227Z,35.00
2022-08-09T09:58:16.571Z,35.03
2022-08-09T10:00:58.867Z,35.11
2022-08-09T10:03:44.662Z,33.65
2022-08-09T10:06:23.170Z,35.44
2022-08-09T10:08:54.891Z,35.67
2022-08-09T10:12:00.091Z,35.76
2022-08-09T10:14:33.847Z,35.32
2022-08-09T10:17:40.559Z,33.41
2022-08-09T10:19:57.148Z,33.46
2022-08-09T10:22:36.840Z,36.03
2022-08-09T10:25:11.658Z,36.11
2022-08-09T10:27:45.155Z,35.39
2022-08-09T10:32:21.049Z,35.35
2022-08-09T10:34:08.941Z,35.84
2022-08-09T10:36:03.305Z,37.08
2022-08-09T10:38:54.946Z,36.67
2022-08-09T10:41:18.735Z,35.88
2022-08-09T10:43:59.331Z,35.38
2022-08-09T10:47:00.573Z,34.89
2022-08-09T10:50:03.120Z,35.84
2022-08-09T10:52:54.080Z,34.78
2022-08-09T10:55:25.955Z,35.41
2022-08-09T10:57:55.705Z,35.54
2022-08-09T11:00:41.826Z,35.80
2022-08-09T11:03:47.070Z,37.09
2022-08-09T11:06:15.922Z,37.26
2022-08-09T11:08:47.575Z,36.31
2022-08-09T11:11:15.330Z,36.49
2022-08-09T11:13:50.445Z,34.80
2022-08-09T11:16:38.689Z,33.91
2022-08-09T11:19:09.852Z,35.55
2022-08-09T11:22:04.869Z,34.42
2022-08-09T11:25:16.130Z,37.51
2022-08-09T11:28:05.538Z,35.35
2022-08-09T11:30:36.740Z,35.64
2022-08-09T11:33:16.643Z,35.53
2022-08-09T11:35:57.265Z,36.08
2022-08-09T11:38:33.278Z,36.09
2022-08-09T11:41:24.385Z,36.00
2022-08-09T11:44:04.302Z,34.96
2022-08-09T11:46:51.643Z,34.57
2022-08-09T11:49:28.181Z,36.38
2022-08-09T11:53:03.701Z,35.24
2022-08-09T11:55:51.469Z,36.59
2022-08-09T11:58:15.368Z,34.81
2022-08-09T12:00:52.904Z,34.27
2022-08-09T12:03:54.824Z,35.01
2022-08-09T12:06:18.395Z,36.15
2022-08-09T12:08:56.007Z,35.73
2022-08-09T12:11:26.984Z,35.07
2022-08-09T12:14:09.977Z,35.18
2022-08-09T12:16:43.573Z,36.77
2022-08-09T12:19:12.035Z,36.14
2022-08-09T12:21:48.400Z,35.48
2022-08-09T12:24:24.570Z,36.65
2022-08-09T12:28:58.891Z,36.28
2022-08-09T12:29:52.281Z,36.49
2022-08-09T12:32:26.847Z,35.17
2022-08-09T12:34:59.109Z,34.58
2022-08-09T12:37:33.819Z,35.76
2022-08-09T12:40:16.326Z,35.39
2022-08-09T12:42:44.252Z,35.63
2022-08-09T12:45:33.951Z,34.34
2022-08-09T12:47:57.987Z,35.11
2022-08-09T12:50:25.151Z,35.32
2022-08-09T12:53:17.363Z,34.16
2022-08-09T12:56:16.042Z,34.39
2022-08-09T12:58:28.260Z,35.17
2022-08-09T13:00:56.459Z,35.17
2022-08-09T13:03:57.108Z,34.92
2022-08-09T13:06:42.034Z,34.90
2022-08-09T13:09:23.360Z,35.90
2022-08-09T13:12:01.954Z,35.27
2022-08-09T13:14:41.697Z,35.50
2022-08-09T13:17:44.259Z,35.91
2022-08-09T13:20:09.981Z,35.13
2022-08-09T13:23:00.993Z,35.55
2022-08-09T13:25:53.349Z,35.88
2022-08-09T13:28:34.198Z,36.52
2022-08-09T13:32:17.841Z,36.01
2022-08-09T13:33:54.151Z,35.98
2022-08-09T13:36:24.422Z,35.04
2022-08-09T13:41:17.395Z,36.54
2022-08-09T13:42:12.251Z,36.37
2022-08-09T13:44:42.594Z,35.20
2022-08-09T13:47:26.887Z,34.11
2022-08-09T13:49:57.782Z,34.41
2022-08-09T13:52:29.264Z,35.57
2022-08-09T13:55:00.224Z,36.03
2022-08-09T13:57:35.610Z,35.48
2022-08-09T14:00:07.474Z,35.84
2022-08-09T14:02:36.235Z,36.88
2022-08-09T14:05:09.762Z,37.54
2022-08-09T14:07:41.064Z,36.71
2022-08-09T14:10:17.017Z,36.76
2022-08-09T14:12:44.236Z,36.97
2022-08-09T14:16:07.210Z,37.56
2022-08-09T14:18:18.877Z,39.62
2022-08-09T14:20:43.977Z,37.94
2022-08-09T14:23:20.438Z,37.44
2022-08-09T14:26:01.443Z,37.71
2022-08-09T14:28:28.044Z,37.74
2022-08-09T14:30:54.423Z,36.95
2022-08-09T14:33:21.517Z,36.38
2022-08-09T14:35:52.352Z,36.23
2022-08-09T14:38:19.806Z,35.98
2022-08-09T14:41:02.315Z,36.96
2022-08-09T14:43:46.909Z,35.44
2022-08-09T14:46:46.311Z,36.31
2022-08-09T14:49:02.743Z,36.55
2022-08-09T14:51:30.129Z,36.95
2022-08-09T14:53:56.648Z,35.82
2022-08-09T14:56:26.949Z,35.73
2022-08-09T14:58:56.163Z,35.36
2022-08-09T15:01:24.277Z,36.19
2022-08-09T15:03:50.780Z,35.35
2022-08-09T15:06:17.244Z,36.18
2022-08-09T15:08:46.338Z,35.75
2022-08-09T15:11:22.904Z,34.35
2022-08-09T15:14:04.101Z,34.61
2022-08-09T15:16:31.399Z,34.92
2022-08-09T15:18:59.802Z,34.70
2022-08-09T15:21:56.202Z,34.83
2022-08-09T15:24:23.324Z,35.27
2022-08-09T15:26:53.871Z,35.67
2022-08-09T15:30:55.354Z,36.37
2022-08-09T15:32:29.192Z,35.81
2022-08-09T15:34:53.865Z,36.72
2022-08-09T15:37:23.496Z,36.13
2022-08-09T15:39:55.075Z,37.59
2022-08-09T15:42:21.947Z,37.87
2022-08-09T15:44:48.978Z,37.53
2022-08-09T15:47:22.703Z,37.70
2022-08-09T15:50:00.618Z,37.48
2022-08-09T15:52:35.606Z,37.20
2022-08-09T15:55:03.990Z,37.51
2022-08-09T15:57:35.029Z,36.52
2022-08-09T16:00:08.326Z,37.49
2022-08-09T16:02:34.733Z,37.41
2022-08-09T16:05:03.931Z,38.14
2022-08-09T16:07:39.075Z,38.70
2022-08-09T16:10:08.040Z,38.41
2022-08-09T16:12:50.565Z,38.99
2022-08-09T16:16:04.629Z,39.35
2022-08-09T16:18:06.536Z,39.81
2022-08-09T16:20:35.634Z,38.96
2022-08-09T16:23:05.653Z,37.89
2022-08-09T16:25:40.242Z,37.67
2022-08-09T16:28:07.374Z,37.54
2022-08-09T16:30:33.876Z,37.79
2022-08-09T16:33:01.482Z,38.43
2022-08-09T16:35:57.110Z,39.23
2022-08-09T16:38:14.477Z,38.83
2022-08-09T16:40:44.556Z,39.72
2022-08-09T16:43:12.220Z,40.32
2022-08-09T16:45:44.338Z,40.56
2022-08-09T16:48:49.523Z,40.47
2022-08-09T16:50:59.648Z,40.62
2022-08-09T16:53:34.712Z,40.87
2022-08-09T16:56:06.279Z,40.88
2022-08-09T16:58:36.864Z,41.20
2022-08-09T17:01:04.579Z,41.40
2022-08-09T17:03:31.713Z,41.66
2022-08-09T17:06:09.408Z,42.09
2022-08-09T17:09:00.034Z,42.70
2022-08-09T17:11:41.074Z,44.30
2022-08-09T17:14:25.730Z,43.98
2022-08-09T17:16:59.446Z,44.95
2022-08-09T17:19:26.945Z,45.00
2022-08-09T17:22:13.758Z,45.73
2022-08-09T17:24:41.381Z,45.22
2022-08-09T17:27:15.365Z,45.35
2022-08-09T17:29:45.509Z,45.26
2022-08-09T17:32:15.783Z,46.36
2022-08-09T17:35:02.009Z,45.98
2022-08-09T17:37:32.947Z,46.37
2022-08-09T17:40:19.384Z,46.68
2022-08-09T17:42:47.142Z,46.87
2022-08-09T17:45:15.856Z,46.85
2022-08-09T17:47:55.102Z,47.59
2022-08-09T17:50:36.204Z,47.50
2022-08-09T17:53:04.738Z,47.54
2022-08-09T17:55:49.131Z,47.92
2022-08-09T17:58:16.102Z,48.07
2022-08-09T18:00:46.429Z,49.37
2022-08-09T18:03:13.427Z,48.53
2022-08-09T18:05:43.543Z,48.14
2022-08-09T18:08:10.959Z,49.04
2022-08-09T18:10:39.884Z,49.29
2022-08-09T18:13:43.432Z,49.38
2022-08-09T18:16:07.436Z,49.57
2022-08-09T18:18:36.015Z,49.62
2022-08-09T18:21:21.450Z,50.20
2022-08-09T18:24:09.675Z,50.26
2022-08-09T18:26:49.494Z,50.46
2022-08-09T18:30:40.183Z,50.79
2022-08-09T18:32:06.293Z,51.20
2022-08-09T18:34:33.637Z,51.87
2022-08-09T18:36:59.963Z,52.00
2022-08-09T18:39:32.754Z,52.41
2022-08-09T18:42:01.286Z,52.40
2022-08-09T18:44:28.779Z,52.89
2022-08-09T18:47:07.580Z,53.12
2022-08-09T18:49:41.612Z,53.91
2022-08-09T18:52:11.665Z,53.79
2022-08-09T18:54:39.190Z,54.06
2022-08-09T18:57:12.281Z,54.17
2022-08-09T18:59:51.396Z,54.94
2022-08-09T19:02:30.699Z,55.29
2022-08-09T19:05:04.085Z,56.97
2022-08-09T19:07:41.699Z,55.85
2022-08-09T19:10:18.110Z,56.35
2022-08-09T19:12:59.531Z,57.82
2022-08-09T19:15:31.324Z,57.08
2022-08-09T19:17:58.586Z,58.73
2022-08-09T19:20:25.909Z,57.60
2022-08-09T19:22:54.510Z,57.61
2022-08-09T19:25:42.741Z,57.88
2022-08-09T19:28:08.976Z,58.11
2022-08-09T19:30:44.471Z,58.85
2022-08-09T19:33:19.574Z,59.45
2022-08-09T19:35:57.272Z,58.26
2022-08-09T19:38:25.707Z,59.04
2022-08-09T19:40:52.606Z,59.00
2022-08-09T19:44:02.272Z,58.68
2022-08-09T19:46:05.654Z,59.06
2022-08-09T19:49:01.938Z,60.91
2022-08-09T19:51:18.359Z,60.06
2022-08-09T19:53:47.751Z,60.01
2022-08-09T19:56:15.513Z,60.75
2022-08-09T19:58:42.242Z,61.85
2022-08-09T20:01:23.884Z,61.37
2022-08-09T20:04:16.943Z,61.63
2022-08-09T20:06:37.549Z,62.45
2022-08-09T20:09:04.493Z,62.39
2022-08-09T20:11:33.916Z,62.95
2022-08-09T20:14:10.341Z,62.79
2022-08-09T20:16:53.177Z,64.78
2022-08-09T20:19:48.869Z,65.37
2022-08-09T20:22:08.989Z,65.84
2022-08-09T20:24:36.633Z,66.11
2022-08-09T20:27:08.357Z,66.57
2022-08-09T20:29:37.414Z,66.52
2022-08-09T20:32:29.978Z,66.67
2022-08-09T20:34:56.168Z,66.98
2022-08-09T20:37:22.918Z,67.01
2022-08-09T20:40:16.347Z,67.49
2022-08-09T20:42:37.794Z,68.07
2022-08-09T20:46:00.947Z,68.88
2022-08-09T20:47:51.377Z,68.39
2022-08-09T20:50:47.133Z,68.91
2022-08-09T20:53:04.311Z,68.04
2022-08-09T20:55:47.508Z,68.99
2022-08-09T20:58:26.885Z,69.28
2022-08-09T21:01:02.276Z,70.02
2022-08-09T21:05:48.749Z,69.50
2022-08-09T21:06:32.681Z,70.07
2022-08-09T21:09:01.670Z,70.05
2022-08-09T21:14:15.441Z,70.52
2022-08-09T21:16:43.728Z,70.88
2022-08-09T21:20:19.479Z,71.04
2022-08-09T21:21:58.432Z,71.19
2022-08-09T21:24:28.480Z,70.77
2022-08-09T21:26:59.258Z,71.50
2022-08-09T21:29:25.612Z,71.63
2022-08-09T21:31:51.968Z,72.05
2022-08-09T21:34:28.868Z,71.65
2022-08-09T21:36:56.411Z,72.19
2022-08-09T21:39:28.206Z,71.99
2022-08-09T21:42:10.400Z,72.36
2022-08-09T21:44:37.938Z,72.31
2022-08-09T21:47:07.680Z,72.36
2022-08-09T21:49:39.655Z,72.39
2022-08-09T21:52:17.747Z,73.25
2022-08-09T21:54:59.342Z,72.86
2022-08-09T21:57:38.788Z,73.63
2022-08-09T22:00:25.441Z,73.37
2022-08-09T22:02:58.753Z,71.98
2022-08-09T22:05:36.013Z,71.81
2022-08-09T22:08:05.677Z,72.00
2022-08-09T22:10:32.291Z,72.04
2022-08-09T22:13:00.853Z,72.05
2022-08-09T22:15:34.990Z,71.77
2022-08-09T22:18:01.660Z,71.88
2022-08-09T22:20:31.463Z,72.12
2022-08-09T22:22:58.305Z,71.79
2022-08-09T22:26:05.907Z,71.91
2022-08-09T22:28:11.560Z,72.10
2022-08-09T22:30:39.050Z,72.32
2022-08-09T22:33:17.181Z,71.73
2022-08-09T22:36:02.052Z,72.68
2022-08-09T22:38:29.955Z,72.58
2022-08-09T22:40:57.760Z,72.35
2022-08-09T22:43:26.463Z,72.60
2022-08-09T22:48:11.989Z,73.00
2022-08-09T22:49:01.875Z,72.70
2022-08-09T22:51:38.072Z,73.23
2022-08-09T22:54:05.558Z,73.37
2022-08-09T22:56:34.934Z,73.01
2022-08-09T22:59:55.715Z,73.50
2022-08-09T23:01:52.626Z,73.41
2022-08-09T23:04:19.833Z,73.88
2022-08-09T23:06:46.268Z,75.62
2022-08-09T23:09:15.148Z,77.32
2022-08-09T23:11:41.655Z,77.92
2022-08-09T23:14:10.064Z,77.58
2022-08-09T23:16:43.803Z,78.12
2022-08-09T23:19:10.159Z,77.17
2022-08-09T23:21:38.489Z,76.37
2022-08-09T23:24:07.297Z,75.82
2022-08-09T23:26:35.289Z,75.91
2022-08-09T23:29:01.735Z,75.42
2022-08-09T23:31:28.132Z,75.89
2022-08-09T23:33:54.657Z,75.46
2022-08-09T23:36:21.233Z,75.74
2022-08-09T23:38:48.417Z,75.87
2022-08-09T23:41:28.835Z,76.61
2022-08-09T23:43:57.031Z,75.74
2022-08-09T23:46:23.348Z,75.32
2022-08-09T23:48:49.748Z,75.37
2022-08-09T23:51:16.104Z,75.78
2022-08-09T23:53:42.446Z,75.94
2022-08-09T23:56:08.835Z,76.74
2022-08-09T23:58:35.439Z,78.49
